createdAt,value
2023-12-11T00:01:08.268Z,9.76
2023-12-11T00:05:09.923Z,9.73
2023-12-11T00:09:11.457Z,9.69
2023-12-11T00:13:13.363Z,9.74
2023-12-11T00:17:16.685Z,9.75
2023-12-11T00:21:18.500Z,9.79
2023-12-11T00:25:20.297Z,9.77
2023-12-11T00:29:21.824Z,9.81
2023-12-11T00:33:25.000Z,9.82
2023-12-11T00:37:26.560Z,9.89
2023-12-11T00:41:28.394Z,9.85
2023-12-11T00:45:30.144Z,9.85
2023-12-11T00:49:33.416Z,9.64
2023-12-11T00:53:34.992Z,9.74
2023-12-11T00:57:36.611Z,9.61
2023-12-11T01:01:38.169Z,9.60
2023-12-11T01:05:41.102Z,9.61
2023-12-11T01:09:42.991Z,9.61
2023-12-11T01:13:44.770Z,9.47
2023-12-11T01:17:46.444Z,9.45
2023-12-11T01:21:49.676Z,9.43
2023-12-11T01:25:51.268Z,9.60
2023-12-11T01:29:54.140Z,9.52
2023-12-11T01:33:55.737Z,9.48
2023-12-11T01:37:58.688Z,9.43
2023-12-11T01:42:00.345Z,9.34
2023-12-11T01:46:05.961Z,9.29
2023-12-11T01:50:09.034Z,9.30
2023-12-11T01:54:12.171Z,9.48
2023-12-11T01:58:14.710Z,9.43
2023-12-11T02:02:17.708Z,9.45
2023-12-11T02:06:19.784Z,9.50
2023-12-11T02:10:22.698Z,9.48
2023-12-11T02:14:24.421Z,9.52
2023-12-11T02:18:26.059Z,9.52
2023-12-11T02:22:27.908Z,9.55
2023-12-11T02:26:31.221Z,9.43
2023-12-11T02:30:35.886Z,9.53
2023-12-11T02:34:37.586Z,9.46
2023-12-11T02:38:39.282Z,9.53
2023-12-11T02:42:48.942Z,9.49
2023-12-11T02:46:50.470Z,9.37
2023-12-11T02:50:52.069Z,9.36
2023-12-11T02:54:53.671Z,9.45
2023-12-11T02:58:56.618Z,9.39
2023-12-11T03:02:58.459Z,9.47
2023-12-11T03:07:00.041Z,9.39
2023-12-11T03:11:01.570Z,9.33
2023-12-11T03:15:07.526Z,9.25
2023-12-11T03:19:09.299Z,9.33
2023-12-11T03:23:10.841Z,9.26
2023-12-11T03:27:12.784Z,9.39
2023-12-11T03:31:15.946Z,9.49
2023-12-11T03:35:17.506Z,9.56
2023-12-11T03:39:19.056Z,9.55
2023-12-11T03:43:20.654Z,9.48
2023-12-11T03:47:23.673Z,9.26
2023-12-11T03:51:25.444Z,9.24
2023-12-11T03:55:26.997Z,9.18
2023-12-11T03:59:28.484Z,9.08
2023-12-11T04:03:31.866Z,9.03
2023-12-11T04:07:33.509Z,9.08
2023-12-11T04:11:35.473Z,9.24
2023-12-11T04:15:37.254Z,9.23
2023-12-11T04:19:40.209Z,9.27
2023-12-11T04:23:42.916Z,9.17
2023-12-11T04:27:44.802Z,9.13
2023-12-11T04:31:46.373Z,9.21
2023-12-11T04:35:49.693Z,9.24
2023-12-11T04:39:51.264Z,9.27
2023-12-11T04:43:52.802Z,9.36
2023-12-11T04:47:54.347Z,9.47
2023-12-11T04:51:57.463Z,9.54
2023-12-11T04:55:59.041Z,9.69
2023-12-11T05:00:01.503Z,9.72
2023-12-11T05:04:03.149Z,9.67
2023-12-11T05:08:06.936Z,9.60
2023-12-11T05:12:08.804Z,9.60
2023-12-11T05:16:10.363Z,9.63
2023-12-11T05:20:12.344Z,9.68
2023-12-11T05:24:15.906Z,9.53
2023-12-11T05:28:17.554Z,9.43
2023-12-11T05:32:19.076Z,9.45
2023-12-11T05:36:20.575Z,9.42
2023-12-11T05:40:24.179Z,9.45
2023-12-11T05:44:25.832Z,9.33
2023-12-11T05:48:27.666Z,9.43
2023-12-11T05:52:29.452Z,9.40
2023-12-11T05:56:32.341Z,9.31
2023-12-11T06:00:34.014Z,9.27
2023-12-11T06:04:35.895Z,9.12
2023-12-11T06:08:37.410Z,8.96
2023-12-11T06:12:40.340Z,8.91
2023-12-11T06:16:41.875Z,8.84
2023-12-11T06:20:43.481Z,8.75
2023-12-11T06:24:45.049Z,8.72
2023-12-11T06:28:47.952Z,8.74
2023-12-11T06:32:49.705Z,8.75
2023-12-11T06:36:51.382Z,8.81
2023-12-11T06:40:53.272Z,8.66
2023-12-11T06:44:57.220Z,8.62
2023-12-11T06:48:59.192Z,8.66
2023-12-11T06:53:00.963Z,8.62
2023-12-11T06:57:02.581Z,8.63
2023-12-11T07:01:09.943Z,8.62
2023-12-11T07:05:11.607Z,8.69
2023-12-11T07:09:13.267Z,8.73
2023-12-11T07:13:14.874Z,8.67
2023-12-11T07:17:17.788Z,8.86
2023-12-11T07:21:19.433Z,8.99
2023-12-11T07:25:21.001Z,9.03
2023-12-11T07:29:22.804Z,9.22
2023-12-11T07:33:25.799Z,9.26
2023-12-11T07:37:27.408Z,9.30
2023-12-11T07:41:29.245Z,9.39
2023-12-11T07:45:30.743Z,9.41
2023-12-11T07:49:33.748Z,9.35
2023-12-11T07:53:35.339Z,9.34
2023-12-11T07:57:36.841Z,9.32
2023-12-11T08:01:38.464Z,9.36
2023-12-11T08:05:41.451Z,9.30
2023-12-11T08:09:43.344Z,9.38
2023-12-11T08:13:45.637Z,9.46
2023-12-11T08:17:47.214Z,9.41
2023-12-11T08:21:50.124Z,9.48
2023-12-11T08:25:51.730Z,9.49
2023-12-11T08:29:53.313Z,9.60
2023-12-11T08:33:55.209Z,9.69
2023-12-11T08:37:58.106Z,9.67
2023-12-11T08:41:59.660Z,9.75
2023-12-11T08:46:01.215Z,9.83
2023-12-11T08:50:03.334Z,9.95
2023-12-11T08:54:06.414Z,10.02
2023-12-11T08:58:07.949Z,10.04
2023-12-11T09:02:09.547Z,10.14
2023-12-11T09:06:11.297Z,10.07
2023-12-11T09:10:14.625Z,10.11
2023-12-11T09:14:16.288Z,10.26
2023-12-11T09:18:17.938Z,10.39
2023-12-11T09:22:19.615Z,10.29
2023-12-11T09:26:22.528Z,10.32
2023-12-11T09:30:24.350Z,10.37
2023-12-11T09:34:26.406Z,10.44
2023-12-11T09:38:28.112Z,10.42
2023-12-11T09:42:31.725Z,10.35
2023-12-11T09:46:39.433Z,10.31
2023-12-11T09:50:41.346Z,10.32
2023-12-11T09:54:43.327Z,10.29
2023-12-11T09:58:47.063Z,10.35
2023-12-11T10:02:51.344Z,10.36
2023-12-11T10:06:53.514Z,10.53
2023-12-11T10:11:09.194Z,10.49
2023-12-11T10:15:12.141Z,10.61
2023-12-11T10:19:15.051Z,10.54
2023-12-11T10:23:18.227Z,10.66
2023-12-11T10:27:22.742Z,11.08
2023-12-11T10:31:35.436Z,10.94
2023-12-11T10:35:37.053Z,10.89
2023-12-11T10:39:38.695Z,10.96
2023-12-11T10:43:55.347Z,10.80
2023-12-11T10:48:03.834Z,10.75
2023-12-11T10:52:05.599Z,10.54
2023-12-11T10:56:08.896Z,10.54
2023-12-11T11:00:11.956Z,10.21
2023-12-11T11:04:16.783Z,10.01
2023-12-11T11:08:26.756Z,9.93
2023-12-11T11:12:41.065Z,9.95
2023-12-11T11:16:52.695Z,10.02
2023-12-11T11:21:12.163Z,10.06
2023-12-11T11:25:33.473Z,9.99
2023-12-11T11:29:39.039Z,9.89
2023-12-11T11:33:45.143Z,10.02
2023-12-11T11:37:51.050Z,10.00
2023-12-11T11:41:52.608Z,10.18
2023-12-11T11:45:55.074Z,10.30
2023-12-11T11:50:04.601Z,10.64
2023-12-11T11:54:07.785Z,10.68
2023-12-11T11:58:12.025Z,10.81
2023-12-11T12:02:21.727Z,10.69
2023-12-11T12:06:23.404Z,10.60
2023-12-11T12:10:26.855Z,10.61
2023-12-11T12:14:28.468Z,10.77
2023-12-11T12:18:30.333Z,10.82
2023-12-11T12:22:32.171Z,10.90
2023-12-11T12:26:37.189Z,11.08
2023-12-11T12:30:38.817Z,10.91
2023-12-11T12:34:44.955Z,10.58
2023-12-11T12:38:46.700Z,10.59
2023-12-11T12:42:51.360Z,10.42
2023-12-11T12:46:52.947Z,10.37
2023-12-11T12:51:05.138Z,9.65
2023-12-11T12:55:07.159Z,9.55
2023-12-11T12:59:10.087Z,9.31
2023-12-11T13:03:11.650Z,9.20
2023-12-11T13:07:13.224Z,9.24
2023-12-11T13:11:14.747Z,9.17
2023-12-11T13:15:17.669Z,9.05
2023-12-11T13:19:19.515Z,9.09
2023-12-11T13:23:21.082Z,8.98
2023-12-11T13:27:22.665Z,9.02
2023-12-11T13:31:25.884Z,8.93
2023-12-11T13:35:27.547Z,9.00
2023-12-11T13:39:29.065Z,8.86
2023-12-11T13:43:30.629Z,8.85
2023-12-11T13:47:33.828Z,8.83
2023-12-11T13:51:35.716Z,8.77
2023-12-11T13:55:37.162Z,8.74
2023-12-11T13:59:38.668Z,8.64
2023-12-11T14:03:41.561Z,8.64
2023-12-11T14:07:44.665Z,8.68
2023-12-11T14:11:46.291Z,8.65
2023-12-11T14:15:47.840Z,8.62
2023-12-11T14:19:50.888Z,8.69
2023-12-11T14:23:52.894Z,8.59
2023-12-11T14:27:55.989Z,8.61
2023-12-11T14:31:57.561Z,8.67
2023-12-11T14:36:00.415Z,8.67
2023-12-11T14:40:02.116Z,8.61
2023-12-11T14:44:03.818Z,8.48
2023-12-11T14:48:08.089Z,8.47
2023-12-11T14:52:11.454Z,8.46
2023-12-11T14:56:12.915Z,8.46
2023-12-11T15:00:14.971Z,8.58
2023-12-11T15:04:16.567Z,8.40
2023-12-11T15:08:19.450Z,8.34
2023-12-11T15:12:21.381Z,8.24
2023-12-11T15:16:23.292Z,8.09
2023-12-11T15:20:24.962Z,8.11
2023-12-11T15:24:27.904Z,8.17
2023-12-11T15:28:29.497Z,8.02
2023-12-11T15:32:31.496Z,8.16
2023-12-11T15:36:32.995Z,8.09
2023-12-11T15:40:36.130Z,8.15
2023-12-11T15:44:37.625Z,7.87
2023-12-11T15:48:39.519Z,7.91
2023-12-11T15:52:41.024Z,7.79
2023-12-11T15:56:43.893Z,7.87
2023-12-11T16:00:45.591Z,8.08
2023-12-11T16:04:47.420Z,7.90
2023-12-11T16:08:48.880Z,7.90
2023-12-11T16:12:51.828Z,7.92
2023-12-11T16:16:53.519Z,7.86
2023-12-11T16:20:55.002Z,7.85
2023-12-11T16:24:56.878Z,7.72
2023-12-11T16:28:59.753Z,7.73
2023-12-11T16:33:01.289Z,7.81
2023-12-11T16:37:02.824Z,7.80
2023-12-11T16:41:04.747Z,7.78
2023-12-11T16:45:09.608Z,7.72
2023-12-11T16:49:11.228Z,7.79
2023-12-11T16:53:12.999Z,7.79
2023-12-11T16:57:14.771Z,7.71
2023-12-11T17:01:17.752Z,7.76
2023-12-11T17:05:19.469Z,7.72
2023-12-11T17:09:21.124Z,7.75
2023-12-11T17:13:22.683Z,7.79
2023-12-11T17:17:25.543Z,8.03
2023-12-11T17:21:32.104Z,8.16
2023-12-11T17:25:35.790Z,8.21
2023-12-11T17:29:37.351Z,8.32
2023-12-11T17:33:40.206Z,8.24
2023-12-11T17:37:41.840Z,8.26
2023-12-11T17:41:43.335Z,8.13
2023-12-11T17:45:44.940Z,8.15
2023-12-11T17:49:47.782Z,8.08
2023-12-11T17:53:49.299Z,8.10
2023-12-11T17:57:50.794Z,8.11
2023-12-11T18:01:52.444Z,8.06
2023-12-11T18:05:55.289Z,8.07
2023-12-11T18:09:56.833Z,8.18
2023-12-11T18:13:58.310Z,8.08
2023-12-11T18:17:59.900Z,8.02
2023-12-11T18:22:04.732Z,8.17
2023-12-11T18:26:11.380Z,8.00
2023-12-11T18:30:13.624Z,8.10
2023-12-11T18:34:15.338Z,8.26
2023-12-11T18:38:18.292Z,8.28
2023-12-11T18:42:19.765Z,8.26
2023-12-11T18:46:21.516Z,8.26
2023-12-11T18:50:23.080Z,8.24
2023-12-11T18:54:25.879Z,8.22
2023-12-11T18:58:27.535Z,8.29
2023-12-11T19:02:29.292Z,8.13
2023-12-11T19:06:30.913Z,8.19
2023-12-11T19:10:33.822Z,8.18
2023-12-11T19:14:35.325Z,8.28
2023-12-11T19:18:37.064Z,8.15
2023-12-11T19:22:38.609Z,8.10
2023-12-11T19:26:41.490Z,8.04
2023-12-11T19:30:43.294Z,8.02
2023-12-11T19:34:44.822Z,7.98
2023-12-11T19:38:46.604Z,8.09
2023-12-11T19:42:49.480Z,8.10
2023-12-11T19:46:51.140Z,7.95
2023-12-11T19:50:52.672Z,8.03
2023-12-11T19:54:54.174Z,7.82
2023-12-11T19:58:56.994Z,7.77
2023-12-11T20:02:58.555Z,7.84
2023-12-11T20:07:00.075Z,7.67
2023-12-11T20:11:01.553Z,7.66
2023-12-11T20:15:05.149Z,7.68
2023-12-11T20:19:06.706Z,7.57
2023-12-11T20:23:08.290Z,7.65
2023-12-11T20:27:10.342Z,7.64
2023-12-11T20:31:22.060Z,7.60
2023-12-11T20:35:23.559Z,7.62
2023-12-11T20:39:25.352Z,7.55
2023-12-11T20:43:26.864Z,7.60
2023-12-11T20:47:29.879Z,7.68
2023-12-11T20:51:31.586Z,7.68
2023-12-11T20:55:33.134Z,7.72
2023-12-11T20:59:34.800Z,7.72
2023-12-11T21:03:39.139Z,7.66
2023-12-11T21:07:40.637Z,7.69
2023-12-11T21:11:42.224Z,7.64
2023-12-11T21:15:43.684Z,7.60
2023-12-11T21:19:46.688Z,7.60
2023-12-11T21:23:48.747Z,7.60
2023-12-11T21:27:50.291Z,7.65
2023-12-11T21:31:51.834Z,7.51
2023-12-11T21:35:54.912Z,7.50
2023-12-11T21:39:56.479Z,7.43
2023-12-11T21:43:58.083Z,7.59
2023-12-11T21:47:59.890Z,7.60
2023-12-11T21:52:02.815Z,7.55
2023-12-11T21:56:04.953Z,7.39
2023-12-11T22:00:08.018Z,7.45
2023-12-11T22:04:09.689Z,7.31
2023-12-11T22:08:12.630Z,7.29
2023-12-11T22:12:14.192Z,7.38
2023-12-11T22:16:15.862Z,7.28
2023-12-11T22:20:17.905Z,7.22
2023-12-11T22:24:20.707Z,7.13
2023-12-11T22:28:22.422Z,7.05
2023-12-11T22:32:23.879Z,6.97
2023-12-11T22:36:25.649Z,7.07
2023-12-11T22:40:28.477Z,7.10
2023-12-11T22:44:30.268Z,7.06
2023-12-11T22:48:31.902Z,6.97
2023-12-11T22:52:33.430Z,7.09
2023-12-11T22:56:36.467Z,7.18
2023-12-11T23:00:37.956Z,7.29
2023-12-11T23:04:39.521Z,7.23
2023-12-11T23:08:41.179Z,7.22
2023-12-11T23:12:44.087Z,7.16
2023-12-11T23:16:45.536Z,7.24
2023-12-11T23:20:46.999Z,7.19
2023-12-11T23:24:48.521Z,7.25
2023-12-11T23:28:51.795Z,7.13
2023-12-11T23:32:53.328Z,7.26
2023-12-11T23:36:54.903Z,7.18
2023-12-11T23:40:56.398Z,7.08
2023-12-11T23:44:59.441Z,7.09
2023-12-11T23:49:00.967Z,7.05
2023-12-11T23:53:02.473Z,7.03
2023-12-11T23:57:04.680Z,7.06
